sensor_id;sensor_type;location;lat;lon;timestamp;P1;durP1;ratioP1;P2;durP2;ratioP2
60718;SDS011;46567;51.660;5.824;2022-12-07T00:02:28;10.6;;;7.2;;
60718;SDS011;46567;51.660;5.824;2022-12-07T00:07:28;11.9;;;7.5;;
60718;SDS011;46567;51.660;5.824;2022-12-07T00:12:28;8.7;;;6.6;;
60718;SDS011;46567;51.660;5.824;2022-12-07T00:17:28;9.1;;;7.0;;
60718;SDS011;46567;51.660;5.824;2022-12-07T00:27:28;11.6;;;7.2;;
60718;SDS011;46567;51.660;5.824;2022-12-07T00:32:28;12.4;;;8.3;;
60718;SDS011;46567;51.660;5.824;2022-12-07T00:37:28;12.5;;;8.3;;
60718;SDS011;46567;51.660;5.824;2022-12-07T00:42:29;13.9;;;8.4;;
60718;SDS011;46567;51.660;5.824;2022-12-07T00:47:28;13.1;;;8.2;;
60718;SDS011;46567;51.660;5.824;2022-12-07T00:52:28;12.5;;;8.3;;
60718;SDS011;46567;51.660;5.824;2022-12-07T00:57:28;15.3;;;8.4;;
60718;SDS011;46567;51.660;5.824;2022-12-07T01:02:28;11.5;;;8.0;;
60718;SDS011;46567;51.660;5.824;2022-12-07T01:07:28;15.1;;;8.7;;
60718;SDS011;46567;51.660;5.824;2022-12-07T01:12:28;15.0;;;8.4;;
60718;SDS011;46567;51.660;5.824;2022-12-07T01:17:28;11.5;;;8.1;;
60718;SDS011;46567;51.660;5.824;2022-12-07T01:22:28;13.1;;;8.8;;
60718;SDS011;46567;51.660;5.824;2022-12-07T01:27:28;14.4;;;8.7;;
60718;SDS011;46567;51.660;5.824;2022-12-07T01:32:28;13.1;;;8.5;;
60718;SDS011;46567;51.660;5.824;2022-12-07T01:42:28;15.6;;;8.5;;
60718;SDS011;46567;51.660;5.824;2022-12-07T01:47:28;13.5;;;8.7;;
60718;SDS011;46567;51.660;5.824;2022-12-07T01:52:30;15.4;;;8.5;;
60718;SDS011;46567;51.660;5.824;2022-12-07T01:57:31;15.1;;;8.5;;
60718;SDS011;46567;51.660;5.824;2022-12-07T02:02:29;12.7;;;8.2;;
60718;SDS011;46567;51.660;5.824;2022-12-07T02:12:28;13.9;;;8.5;;
60718;SDS011;46567;51.660;5.824;2022-12-07T02:17:36;12.6;;;8.0;;
60718;SDS011;46567;51.660;5.824;2022-12-07T02:24:09;13.0;;;8.6;;
60718;SDS011;46567;51.660;5.824;2022-12-07T02:28:49;14.4;;;7.7;;
60718;SDS011;46567;51.660;5.824;2022-12-07T02:32:42;14.4;;;8.1;;
60718;SDS011;46567;51.660;5.824;2022-12-07T02:37:34;11.4;;;8.2;;
60718;SDS011;46567;51.660;5.824;2022-12-07T02:42:30;13.2;;;7.6;;
60718;SDS011;46567;51.660;5.824;2022-12-07T02:47:28;14.1;;;7.0;;
60718;SDS011;46567;51.660;5.824;2022-12-07T02:52:28;10.7;;;7.1;;
60718;SDS011;46567;51.660;5.824;2022-12-07T02:58:13;10.3;;;7.2;;
60718;SDS011;46567;51.660;5.824;2022-12-07T03:02:53;11.5;;;7.0;;
60718;SDS011;46567;51.660;5.824;2022-12-07T03:08:05;11.5;;;6.6;;
60718;SDS011;46567;51.660;5.824;2022-12-07T03:12:30;11.5;;;6.4;;
60718;SDS011;46567;51.660;5.824;2022-12-07T03:17:30;9.0;;;6.4;;
60718;SDS011;46567;51.660;5.824;2022-12-07T03:27:34;13.6;;;6.6;;
60718;SDS011;46567;51.660;5.824;2022-12-07T03:32:32;10.1;;;6.4;;
60718;SDS011;46567;51.660;5.824;2022-12-07T03:37:34;12.4;;;7.0;;
60718;SDS011;46567;51.660;5.824;2022-12-07T03:42:28;10.3;;;5.8;;
60718;SDS011;46567;51.660;5.824;2022-12-07T03:47:54;13.7;;;6.1;;
60718;SDS011;46567;51.660;5.824;2022-12-07T03:52:31;9.1;;;6.0;;
60718;SDS011;46567;51.660;5.824;2022-12-07T03:57:28;9.5;;;5.7;;
60718;SDS011;46567;51.660;5.824;2022-12-07T04:02:28;10.2;;;5.1;;
60718;SDS011;46567;51.660;5.824;2022-12-07T04:07:28;9.2;;;5.4;;
60718;SDS011;46567;51.660;5.824;2022-12-07T04:12:28;12.8;;;5.1;;
60718;SDS011;46567;51.660;5.824;2022-12-07T04:17:28;11.3;;;5.6;;
60718;SDS011;46567;51.660;5.824;2022-12-07T04:27:28;11.0;;;4.7;;
60718;SDS011;46567;51.660;5.824;2022-12-07T04:32:28;9.1;;;5.0;;
60718;SDS011;46567;51.660;5.824;2022-12-07T04:37:28;9.4;;;5.1;;
60718;SDS011;46567;51.660;5.824;2022-12-07T04:47:28;8.1;;;4.3;;
60718;SDS011;46567;51.660;5.824;2022-12-07T04:52:28;10.8;;;3.8;;
60718;SDS011;46567;51.660;5.824;2022-12-07T04:57:28;7.3;;;4.1;;
60718;SDS011;46567;51.660;5.824;2022-12-07T05:02:28;8.1;;;3.7;;
60718;SDS011;46567;51.660;5.824;2022-12-07T05:07:28;7.5;;;3.7;;
60718;SDS011;46567;51.660;5.824;2022-12-07T05:12:28;7.7;;;3.7;;
60718;SDS011;46567;51.660;5.824;2022-12-07T05:17:28;11.7;;;3.5;;
60718;SDS011;46567;51.660;5.824;2022-12-07T05:27:28;4.6;;;3.0;;
60718;SDS011;46567;51.660;5.824;2022-12-07T05:37:28;7.8;;;3.4;;
60718;SDS011;46567;51.660;5.824;2022-12-07T05:42:28;8.2;;;4.4;;
60718;SDS011;46567;51.660;5.824;2022-12-07T05:52:28;10.0;;;5.0;;
60718;SDS011;46567;51.660;5.824;2022-12-07T05:57:28;9.2;;;4.6;;
60718;SDS011;46567;51.660;5.824;2022-12-07T06:02:28;10.3;;;5.3;;
60718;SDS011;46567;51.660;5.824;2022-12-07T06:07:28;11.0;;;5.3;;
60718;SDS011;46567;51.660;5.824;2022-12-07T06:12:28;7.5;;;4.7;;
60718;SDS011;46567;51.660;5.824;2022-12-07T06:17:28;8.0;;;4.0;;
60718;SDS011;46567;51.660;5.824;2022-12-07T06:22:28;7.8;;;4.7;;
60718;SDS011;46567;51.660;5.824;2022-12-07T06:27:28;7.9;;;4.7;;
60718;SDS011;46567;51.660;5.824;2022-12-07T06:32:28;6.6;;;3.9;;
60718;SDS011;46567;51.660;5.824;2022-12-07T06:37:28;7.5;;;4.0;;
60718;SDS011;46567;51.660;5.824;2022-12-07T06:42:28;6.7;;;3.6;;
60718;SDS011;46567;51.660;5.824;2022-12-07T06:47:28;9.9;;;3.9;;
60718;SDS011;46567;51.660;5.824;2022-12-07T06:52:41;5.9;;;3.1;;
60718;SDS011;46567;51.660;5.824;2022-12-07T06:57:28;6.7;;;3.1;;
60718;SDS011;46567;51.660;5.824;2022-12-07T07:02:28;6.7;;;3.4;;
60718;SDS011;46567;51.660;5.824;2022-12-07T07:07:28;5.8;;;2.9;;
60718;SDS011;46567;51.660;5.824;2022-12-07T07:12:28;9.7;;;3.6;;
60718;SDS011;46567;51.660;5.824;2022-12-07T07:17:28;8.8;;;3.2;;
60718;SDS011;46567;51.660;5.824;2022-12-07T07:22:28;7.7;;;3.6;;
60718;SDS011;46567;51.660;5.824;2022-12-07T07:27:41;10.5;;;4.0;;
60718;SDS011;46567;51.660;5.824;2022-12-07T07:32:28;10.2;;;4.0;;
60718;SDS011;46567;51.660;5.824;2022-12-07T07:37:28;7.6;;;4.5;;
60718;SDS011;46567;51.660;5.824;2022-12-07T07:42:41;8.1;;;4.4;;
60718;SDS011;46567;51.660;5.824;2022-12-07T07:47:28;8.0;;;4.3;;
60718;SDS011;46567;51.660;5.824;2022-12-07T07:52:28;7.2;;;4.5;;
60718;SDS011;46567;51.660;5.824;2022-12-07T07:57:41;9.9;;;4.2;;
60718;SDS011;46567;51.660;5.824;2022-12-07T08:02:28;9.8;;;4.1;;
60718;SDS011;46567;51.660;5.824;2022-12-07T08:07:28;9.2;;;4.2;;
60718;SDS011;46567;51.660;5.824;2022-12-07T08:12:28;9.8;;;4.3;;
60718;SDS011;46567;51.660;5.824;2022-12-07T08:17:28;6.0;;;4.2;;
60718;SDS011;46567;51.660;5.824;2022-12-07T08:22:28;9.5;;;4.4;;
60718;SDS011;46567;51.660;5.824;2022-12-07T08:27:28;8.1;;;4.8;;
60718;SDS011;46567;51.660;5.824;2022-12-07T08:32:28;9.1;;;5.1;;
60718;SDS011;46567;51.660;5.824;2022-12-07T08:37:28;14.5;;;5.9;;
60718;SDS011;46567;51.660;5.824;2022-12-07T08:42:28;14.6;;;6.3;;
60718;SDS011;46567;51.660;5.824;2022-12-07T08:47:43;16.2;;;6.0;;
60718;SDS011;46567;51.660;5.824;2022-12-07T08:52:28;10.1;;;5.9;;
60718;SDS011;46567;51.660;5.824;2022-12-07T08:57:28;11.1;;;6.1;;
60718;SDS011;46567;51.660;5.824;2022-12-07T09:07:29;17.3;;;9.3;;
60718;SDS011;46567;51.660;5.824;2022-12-07T09:12:28;15.1;;;7.5;;
60718;SDS011;46567;51.660;5.824;2022-12-07T09:17:41;13.0;;;6.6;;
60718;SDS011;46567;51.660;5.824;2022-12-07T09:22:28;11.0;;;5.6;;
60718;SDS011;46567;51.660;5.824;2022-12-07T09:27:28;8.1;;;4.8;;
60718;SDS011;46567;51.660;5.824;2022-12-07T09:32:28;11.9;;;5.9;;
60718;SDS011;46567;51.660;5.824;2022-12-07T09:37:28;10.6;;;5.2;;
60718;SDS011;46567;51.660;5.824;2022-12-07T09:42:36;9.3;;;5.1;;
60718;SDS011;46567;51.660;5.824;2022-12-07T09:47:28;12.4;;;5.1;;
60718;SDS011;46567;51.660;5.824;2022-12-07T09:52:30;9.4;;;4.9;;
60718;SDS011;46567;51.660;5.824;2022-12-07T09:57:41;8.6;;;3.9;;
60718;SDS011;46567;51.660;5.824;2022-12-07T10:02:44;11.3;;;4.5;;
60718;SDS011;46567;51.660;5.824;2022-12-07T10:07:28;6.8;;;4.5;;
60718;SDS011;46567;51.660;5.824;2022-12-07T10:12:28;9.6;;;3.5;;
60718;SDS011;46567;51.660;5.824;2022-12-07T10:17:47;8.1;;;3.5;;
60718;SDS011;46567;51.660;5.824;2022-12-07T10:22:28;6.8;;;3.5;;
60718;SDS011;46567;51.660;5.824;2022-12-07T10:27:32;6.0;;;2.9;;
60718;SDS011;46567;51.660;5.824;2022-12-07T10:32:36;6.7;;;2.8;;
60718;SDS011;46567;51.660;5.824;2022-12-07T10:37:28;4.8;;;2.7;;
60718;SDS011;46567;51.660;5.824;2022-12-07T10:42:29;6.5;;;2.3;;
60718;SDS011;46567;51.660;5.824;2022-12-07T10:47:49;6.7;;;2.3;;
60718;SDS011;46567;51.660;5.824;2022-12-07T10:53:05;5.4;;;2.1;;
60718;SDS011;46567;51.660;5.824;2022-12-07T10:58:37;5.2;;;2.4;;
60718;SDS011;46567;51.660;5.824;2022-12-07T11:03:47;8.5;;;2.3;;
60718;SDS011;46567;51.660;5.824;2022-12-07T11:08:57;6.0;;;2.6;;
60718;SDS011;46567;51.660;5.824;2022-12-07T11:14:03;11.0;;;2.4;;
60718;SDS011;46567;51.660;5.824;2022-12-07T11:17:51;4.7;;;2.1;;
60718;SDS011;46567;51.660;5.824;2022-12-07T11:22:51;8.9;;;1.9;;
60718;SDS011;46567;51.660;5.824;2022-12-07T11:28:12;7.7;;;1.8;;
60718;SDS011;46567;51.660;5.824;2022-12-07T11:33:25;3.9;;;1.7;;
60718;SDS011;46567;51.660;5.824;2022-12-07T11:37:34;5.0;;;1.5;;
60718;SDS011;46567;51.660;5.824;2022-12-07T11:42:35;4.2;;;1.5;;
60718;SDS011;46567;51.660;5.824;2022-12-07T11:47:30;4.2;;;1.5;;
60718;SDS011;46567;51.660;5.824;2022-12-07T11:52:32;4.4;;;1.7;;
60718;SDS011;46567;51.660;5.824;2022-12-07T11:57:39;3.3;;;1.4;;
60718;SDS011;46567;51.660;5.824;2022-12-07T12:02:43;3.4;;;1.7;;
60718;SDS011;46567;51.660;5.824;2022-12-07T12:07:28;4.7;;;1.8;;
60718;SDS011;46567;51.660;5.824;2022-12-07T12:13:15;5.7;;;2.0;;
60718;SDS011;46567;51.660;5.824;2022-12-07T12:19:24;6.9;;;2.0;;
60718;SDS011;46567;51.660;5.824;2022-12-07T12:22:32;4.2;;;1.9;;
60718;SDS011;46567;51.660;5.824;2022-12-07T12:27:39;5.8;;;2.8;;
60718;SDS011;46567;51.660;5.824;2022-12-07T12:32:39;6.7;;;2.2;;
60718;SDS011;46567;51.660;5.824;2022-12-07T12:37:44;5.4;;;2.3;;
60718;SDS011;46567;51.660;5.824;2022-12-07T12:42:43;4.6;;;2.2;;
60718;SDS011;46567;51.660;5.824;2022-12-07T12:47:54;5.2;;;2.5;;
60718;SDS011;46567;51.660;5.824;2022-12-07T12:53:21;7.2;;;3.0;;
60718;SDS011;46567;51.660;5.824;2022-12-07T12:57:33;5.4;;;2.2;;
60718;SDS011;46567;51.660;5.824;2022-12-07T13:02:32;7.1;;;2.2;;
60718;SDS011;46567;51.660;5.824;2022-12-07T13:07:56;4.9;;;2.0;;
60718;SDS011;46567;51.660;5.824;2022-12-07T13:12:28;10.9;;;2.0;;
60718;SDS011;46567;51.660;5.824;2022-12-07T13:18:23;6.1;;;1.8;;
60718;SDS011;46567;51.660;5.824;2022-12-07T13:22:48;4.6;;;1.4;;
60718;SDS011;46567;51.660;5.824;2022-12-07T13:27:28;5.3;;;1.3;;
60718;SDS011;46567;51.660;5.824;2022-12-07T13:32:28;3.7;;;1.1;;
60718;SDS011;46567;51.660;5.824;2022-12-07T13:37:32;3.9;;;1.1;;
60718;SDS011;46567;51.660;5.824;2022-12-07T13:42:29;1.9;;;0.7;;
60718;SDS011;46567;51.660;5.824;2022-12-07T13:47:44;1.8;;;0.8;;
60718;SDS011;46567;51.660;5.824;2022-12-07T13:52:30;3.9;;;0.9;;
60718;SDS011;46567;51.660;5.824;2022-12-07T13:57:29;4.3;;;0.9;;
60718;SDS011;46567;51.660;5.824;2022-12-07T14:02:32;3.0;;;0.8;;
60718;SDS011;46567;51.660;5.824;2022-12-07T14:07:28;3.7;;;1.2;;
60718;SDS011;46567;51.660;5.824;2022-12-07T14:12:28;5.5;;;0.9;;
60718;SDS011;46567;51.660;5.824;2022-12-07T14:17:28;4.3;;;2.0;;
60718;SDS011;46567;51.660;5.824;2022-12-07T14:22:29;2.1;;;1.1;;
60718;SDS011;46567;51.660;5.824;2022-12-07T14:27:30;3.2;;;0.9;;
60718;SDS011;46567;51.660;5.824;2022-12-07T14:32:30;2.0;;;1.0;;
60718;SDS011;46567;51.660;5.824;2022-12-07T14:37:28;4.0;;;1.3;;
60718;SDS011;46567;51.660;5.824;2022-12-07T14:42:28;4.2;;;1.6;;
60718;SDS011;46567;51.660;5.824;2022-12-07T14:47:28;5.7;;;1.8;;
60718;SDS011;46567;51.660;5.824;2022-12-07T14:52:29;7.4;;;2.0;;
60718;SDS011;46567;51.660;5.824;2022-12-07T14:57:28;5.4;;;1.9;;
60718;SDS011;46567;51.660;5.824;2022-12-07T15:02:28;2.4;;;1.1;;
60718;SDS011;46567;51.660;5.824;2022-12-07T15:07:28;1.7;;;1.0;;
60718;SDS011;46567;51.660;5.824;2022-12-07T15:12:28;5.6;;;1.3;;
60718;SDS011;46567;51.660;5.824;2022-12-07T15:17:28;4.5;;;1.2;;
60718;SDS011;46567;51.660;5.824;2022-12-07T15:22:28;2.7;;;1.2;;
60718;SDS011;46567;51.660;5.824;2022-12-07T15:27:28;1.3;;;0.8;;
60718;SDS011;46567;51.660;5.824;2022-12-07T15:32:28;5.0;;;1.3;;
60718;SDS011;46567;51.660;5.824;2022-12-07T15:37:28;3.0;;;1.1;;
60718;SDS011;46567;51.660;5.824;2022-12-07T15:42:28;4.0;;;1.7;;
60718;SDS011;46567;51.660;5.824;2022-12-07T15:47:28;6.2;;;1.1;;
60718;SDS011;46567;51.660;5.824;2022-12-07T15:52:28;3.4;;;1.0;;
60718;SDS011;46567;51.660;5.824;2022-12-07T15:57:28;2.2;;;1.0;;
60718;SDS011;46567;51.660;5.824;2022-12-07T16:02:28;2.7;;;0.8;;
60718;SDS011;46567;51.660;5.824;2022-12-07T16:07:28;2.9;;;0.9;;
60718;SDS011;46567;51.660;5.824;2022-12-07T16:12:28;4.4;;;1.5;;
60718;SDS011;46567;51.660;5.824;2022-12-07T16:17:28;5.3;;;1.3;;
60718;SDS011;46567;51.660;5.824;2022-12-07T16:22:28;3.8;;;1.1;;
60718;SDS011;46567;51.660;5.824;2022-12-07T16:27:28;2.6;;;1.1;;
60718;SDS011;46567;51.660;5.824;2022-12-07T16:32:28;4.2;;;1.4;;
60718;SDS011;46567;51.660;5.824;2022-12-07T16:37:28;5.7;;;2.3;;
60718;SDS011;46567;51.660;5.824;2022-12-07T16:42:28;4.6;;;1.9;;
60718;SDS011;46567;51.660;5.824;2022-12-07T16:47:28;2.7;;;1.6;;
60718;SDS011;46567;51.660;5.824;2022-12-07T16:52:28;2.8;;;1.9;;
60718;SDS011;46567;51.660;5.824;2022-12-07T16:57:28;2.4;;;1.7;;
60718;SDS011;46567;51.660;5.824;2022-12-07T17:02:28;2.7;;;1.9;;
60718;SDS011;46567;51.660;5.824;2022-12-07T17:07:28;4.7;;;2.5;;
60718;SDS011;46567;51.660;5.824;2022-12-07T17:12:28;7.1;;;3.7;;
60718;SDS011;46567;51.660;5.824;2022-12-07T17:17:28;6.4;;;3.2;;
60718;SDS011;46567;51.660;5.824;2022-12-07T17:22:28;8.3;;;3.7;;
60718;SDS011;46567;51.660;5.824;2022-12-07T17:27:28;7.1;;;3.3;;
60718;SDS011;46567;51.660;5.824;2022-12-07T17:32:28;7.8;;;4.9;;
60718;SDS011;46567;51.660;5.824;2022-12-07T17:37:28;8.4;;;4.9;;
60718;SDS011;46567;51.660;5.824;2022-12-07T17:42:28;7.5;;;4.6;;
60718;SDS011;46567;51.660;5.824;2022-12-07T17:47:28;9.1;;;5.2;;
60718;SDS011;46567;51.660;5.824;2022-12-07T17:52:28;10.3;;;5.3;;
60718;SDS011;46567;51.660;5.824;2022-12-07T17:57:28;7.3;;;5.3;;
60718;SDS011;46567;51.660;5.824;2022-12-07T18:02:28;9.1;;;4.9;;
60718;SDS011;46567;51.660;5.824;2022-12-07T18:07:28;8.1;;;5.1;;
60718;SDS011;46567;51.660;5.824;2022-12-07T18:12:28;10.2;;;5.5;;
60718;SDS011;46567;51.660;5.824;2022-12-07T18:17:28;6.9;;;5.0;;
60718;SDS011;46567;51.660;5.824;2022-12-07T18:22:28;8.1;;;5.7;;
60718;SDS011;46567;51.660;5.824;2022-12-07T18:27:28;12.9;;;6.0;;
60718;SDS011;46567;51.660;5.824;2022-12-07T18:37:28;9.4;;;5.7;;
60718;SDS011;46567;51.660;5.824;2022-12-07T18:42:28;9.4;;;5.4;;
60718;SDS011;46567;51.660;5.824;2022-12-07T18:47:28;10.1;;;5.9;;
60718;SDS011;46567;51.660;5.824;2022-12-07T18:52:28;7.3;;;5.2;;
60718;SDS011;46567;51.660;5.824;2022-12-07T18:57:28;9.3;;;5.8;;
60718;SDS011;46567;51.660;5.824;2022-12-07T19:02:28;8.1;;;5.3;;
60718;SDS011;46567;51.660;5.824;2022-12-07T19:07:28;10.4;;;5.0;;
60718;SDS011;46567;51.660;5.824;2022-12-07T19:12:28;8.9;;;5.9;;
60718;SDS011;46567;51.660;5.824;2022-12-07T19:17:28;6.7;;;4.8;;
60718;SDS011;46567;51.660;5.824;2022-12-07T19:22:28;7.6;;;5.5;;
60718;SDS011;46567;51.660;5.824;2022-12-07T19:27:28;6.0;;;4.6;;
60718;SDS011;46567;51.660;5.824;2022-12-07T19:32:28;7.2;;;4.8;;
60718;SDS011;46567;51.660;5.824;2022-12-07T19:37:28;8.2;;;5.2;;
60718;SDS011;46567;51.660;5.824;2022-12-07T19:42:28;6.7;;;4.8;;
60718;SDS011;46567;51.660;5.824;2022-12-07T19:47:28;8.6;;;5.3;;
60718;SDS011;46567;51.660;5.824;2022-12-07T19:52:28;11.1;;;5.4;;
60718;SDS011;46567;51.660;5.824;2022-12-07T19:57:28;9.2;;;6.0;;
60718;SDS011;46567;51.660;5.824;2022-12-07T20:02:28;8.1;;;5.6;;
60718;SDS011;46567;51.660;5.824;2022-12-07T20:07:28;8.1;;;5.3;;
60718;SDS011;46567;51.660;5.824;2022-12-07T20:12:28;9.1;;;6.4;;
60718;SDS011;46567;51.660;5.824;2022-12-07T20:17:28;11.9;;;7.5;;
60718;SDS011;46567;51.660;5.824;2022-12-07T20:22:28;9.9;;;5.9;;
60718;SDS011;46567;51.660;5.824;2022-12-07T20:32:28;8.6;;;6.2;;
60718;SDS011;46567;51.660;5.824;2022-12-07T20:37:28;12.0;;;6.6;;
60718;SDS011;46567;51.660;5.824;2022-12-07T20:47:28;8.1;;;6.0;;
60718;SDS011;46567;51.660;5.824;2022-12-07T20:52:28;12.9;;;6.1;;
60718;SDS011;46567;51.660;5.824;2022-12-07T21:02:28;6.5;;;4.7;;
60718;SDS011;46567;51.660;5.824;2022-12-07T21:07:41;6.7;;;4.2;;
60718;SDS011;46567;51.660;5.824;2022-12-07T21:12:28;6.5;;;4.0;;
60718;SDS011;46567;51.660;5.824;2022-12-07T21:17:28;8.4;;;3.6;;
60718;SDS011;46567;51.660;5.824;2022-12-07T21:22:28;5.7;;;3.5;;
60718;SDS011;46567;51.660;5.824;2022-12-07T21:27:28;6.0;;;3.6;;
60718;SDS011;46567;51.660;5.824;2022-12-07T21:32:28;7.7;;;4.2;;
60718;SDS011;46567;51.660;5.824;2022-12-07T21:37:28;12.1;;;3.9;;
60718;SDS011;46567;51.660;5.824;2022-12-07T21:52:28;5.9;;;3.6;;
60718;SDS011;46567;51.660;5.824;2022-12-07T21:57:28;5.3;;;3.3;;
60718;SDS011;46567;51.660;5.824;2022-12-07T22:02:28;5.1;;;3.6;;
60718;SDS011;46567;51.660;5.824;2022-12-07T22:07:28;6.8;;;3.8;;
60718;SDS011;46567;51.660;5.824;2022-12-07T22:12:28;5.9;;;3.7;;
60718;SDS011;46567;51.660;5.824;2022-12-07T22:17:28;9.5;;;3.8;;
60718;SDS011;46567;51.660;5.824;2022-12-07T22:22:28;6.6;;;3.8;;
60718;SDS011;46567;51.660;5.824;2022-12-07T22:27:28;5.8;;;3.2;;
60718;SDS011;46567;51.660;5.824;2022-12-07T22:32:28;5.6;;;3.9;;
60718;SDS011;46567;51.660;5.824;2022-12-07T22:37:28;5.6;;;3.1;;
60718;SDS011;46567;51.660;5.824;2022-12-07T22:42:28;5.7;;;2.9;;
60718;SDS011;46567;51.660;5.824;2022-12-07T22:47:28;8.1;;;3.5;;
60718;SDS011;46567;51.660;5.824;2022-12-07T22:52:28;4.6;;;3.4;;
60718;SDS011;46567;51.660;5.824;2022-12-07T22:57:28;5.7;;;3.1;;
60718;SDS011;46567;51.660;5.824;2022-12-07T23:02:28;3.9;;;3.1;;
60718;SDS011;46567;51.660;5.824;2022-12-07T23:07:28;5.2;;;2.8;;
60718;SDS011;46567;51.660;5.824;2022-12-07T23:12:28;3.4;;;2.5;;
60718;SDS011;46567;51.660;5.824;2022-12-07T23:17:28;5.7;;;2.7;;
60718;SDS011;46567;51.660;5.824;2022-12-07T23:22:28;6.5;;;2.6;;
60718;SDS011;46567;51.660;5.824;2022-12-07T23:27:28;5.1;;;3.0;;
60718;SDS011;46567;51.660;5.824;2022-12-07T23:32:28;7.4;;;3.9;;
60718;SDS011;46567;51.660;5.824;2022-12-07T23:37:28;6.5;;;3.8;;
60718;SDS011;46567;51.660;5.824;2022-12-07T23:42:28;8.6;;;4.2;;
60718;SDS011;46567;51.660;5.824;2022-12-07T23:47:28;5.2;;;4.4;;
60718;SDS011;46567;51.660;5.824;2022-12-07T23:57:28;8.1;;;5.0;;
